Terminal Aerodrome Forecast
Issued by NWS Louisville, KY

Home | Current Version | Previous Version | Text Only | Print | Product List | Glossary On
Versions: 1 2 3 4 5 6 7 8 9 10 11 12 13 14 15 16 17 18
011
FTUS43 KLMK 231720
TAFLEX
TAF
KLEX 231720Z 2318/2418 VRB05KT P6SM SCT040 BKN150
     FM241100 15004KT 5SM BR FEW020 SCT120 BKN250
     FM241400 17005KT P6SM VCSH SCT020 BKN050
     FM241600 VRB06KT 3SM -SHRA BR BKN012=

USA.gov is the U.S. government's official web portal to all federal, state and local government web resources and services.